Time;durP1;ratioP1;P1;durP2;ratioP2;P2;SDS_P1;SDS_P2;PMS_P1;PMS_P2;Temp;Humidity;BMP_temperature;BMP_pressure;BME280_temperature;BME280_humidity;BME280_pressure;Samples;Min_cycle;Max_cycle;Signal;HPM_P1;HPM_P2
2022/04/25 00:00:56;;;;;;;22.20;6.07;;;;;;;9.27;71.47;100984.94;5074369;28;20444;-76
2022/04/25 00:03:22;;;;;;;15.02;6.15;;;;;;;9.29;71.20;100984.75;5076528;28;20115;-77
2022/04/25 00:05:47;;;;;;;12.48;7.05;;;;;;;9.24;71.66;100977.19;5079035;28;20030;-77
2022/04/25 00:08:12;;;;;;;14.02;6.40;;;;;;;9.24;71.46;100982.56;5075761;28;20031;-76
2022/04/25 00:10:38;;;;;;;15.57;6.45;;;;;;;9.23;71.55;100980.88;5082630;28;20096;-76
2022/04/25 00:13:03;;;;;;;13.48;6.57;;;;;;;9.20;71.79;100981.22;5074452;28;20032;-76
2022/04/25 00:15:29;;;;;;;11.10;6.25;;;;;;;9.20;71.63;100978.56;5071930;28;20457;-75
2022/04/25 00:17:54;;;;;;;17.33;6.18;;;;;;;9.18;71.86;100978.72;5075302;28;20050;-76
2022/04/25 00:20:20;;;;;;;12.40;6.60;;;;;;;9.19;71.72;100982.25;5078887;28;20027;-74
2022/04/25 00:22:46;;;;;;;14.95;6.43;;;;;;;9.11;71.54;100983.09;5074204;28;20342;-75
2022/04/25 00:25:12;;;;;;;19.42;6.70;;;;;;;9.11;71.91;100977.72;5074236;28;20029;-75
2022/04/25 00:27:37;;;;;;;14.82;6.35;;;;;;;9.07;71.72;100984.44;5073457;28;20090;-77
2022/04/25 00:30:04;;;;;;;16.67;6.13;;;;;;;9.05;72.00;100981.06;5072848;28;20483;-75
2022/04/25 00:32:29;;;;;;;18.50;6.40;;;;;;;9.07;71.80;100984.44;5072157;28;20051;-75
2022/04/25 00:34:54;;;;;;;19.27;6.82;;;;;;;9.09;71.66;100973.53;5070823;28;20440;-75
2022/04/25 00:37:20;;;;;;;16.30;6.45;;;;;;;9.09;70.92;100984.28;5072736;28;20424;-75
2022/04/25 00:39:45;;;;;;;18.35;7.32;;;;;;;9.08;71.26;100979.91;5071299;28;20028;-75
2022/04/25 00:42:10;;;;;;;12.75;6.25;;;;;;;9.05;70.83;100975.69;5072444;28;20016;-76
2022/04/25 00:44:37;;;;;;;18.52;6.82;;;;;;;9.07;70.86;100980.91;5070998;28;20525;-77
2022/04/25 00:47:03;;;;;;;14.48;6.47;;;;;;;9.06;71.08;100976.53;5071371;28;20373;-76
2022/04/25 00:49:29;;;;;;;12.88;6.60;;;;;;;9.03;70.99;100980.41;5054595;28;20574;-76
2022/04/25 00:51:54;;;;;;;14.93;6.43;;;;;;;9.02;71.11;100984.94;5071037;28;20040;-75
2022/04/25 00:54:23;;;;;;;24.63;7.10;;;;;;;9.04;71.24;100982.09;5072292;28;20051;-77
2022/04/25 00:56:49;;;;;;;25.52;7.55;;;;;;;9.04;71.22;100975.88;5072412;28;20064;-76
2022/04/25 00:59:16;;;;;;;20.15;7.22;;;;;;;9.00;71.61;100978.03;5071884;28;20527;-74
2022/04/25 01:01:42;;;;;;;19.15;7.00;;;;;;;8.99;71.43;100977.22;5070799;28;20096;-75
2022/04/25 01:04:08;;;;;;;17.10;6.72;;;;;;;9.02;71.36;100973.34;5072112;28;20528;-75
2022/04/25 01:06:33;;;;;;;14.65;6.85;;;;;;;9.06;70.82;100971.16;5072474;28;20024;-76
2022/04/25 01:08:59;;;;;;;11.85;6.22;;;;;;;9.06;70.59;100965.78;5072024;28;20020;-76
2022/04/25 01:11:24;;;;;;;17.65;6.90;;;;;;;9.03;70.38;100972.38;5071025;28;20081;-76
2022/04/25 01:13:50;;;;;;;16.10;7.25;;;;;;;8.97;70.44;100968.47;5072804;28;20494;-76
2022/04/25 01:16:15;;;;;;;14.07;6.47;;;;;;;8.99;70.33;100973.69;5073355;28;20020;-77
2022/04/25 01:18:40;;;;;;;16.05;6.65;;;;;;;8.97;70.25;100968.47;5074134;28;20059;-77
2022/04/25 01:21:09;;;;;;;11.05;5.90;;;;;;;8.95;70.18;100965.16;5072768;28;20020;-75
2022/04/25 01:29:03;;;;;;;18.33;6.57;;;;;;;8.98;69.90;100962.13;5071793;28;20090;-76
2022/04/25 01:31:28;;;;;;;13.20;6.25;;;;;;;8.97;69.65;100965.78;5070623;28;20032;-76
2022/04/25 01:33:54;;;;;;;16.77;7.05;;;;;;;8.90;69.97;100958.59;5072468;28;20093;-74
2022/04/25 01:36:25;;;;;;;15.73;6.43;;;;;;;8.89;69.77;100957.75;5073059;28;20145;-75
2022/04/25 01:38:54;;;;;;;17.95;6.50;;;;;;;8.91;69.48;100955.75;5053716;28;20040;-77
2022/04/25 01:41:20;;;;;;;12.85;6.15;;;;;;;8.91;69.29;100953.06;5069803;28;20028;-77
2022/04/25 01:43:45;;;;;;;12.95;5.88;;;;;;;8.97;69.18;100955.06;5053136;28;20506;-76
2022/04/25 01:46:10;;;;;;;9.40;5.97;;;;;;;9.00;69.25;100949.38;5071037;28;20515;-76
2022/04/25 01:48:36;;;;;;;15.10;6.88;;;;;;;9.04;68.69;100951.72;5071688;28;20025;-76
2022/04/25 01:51:01;;;;;;;13.07;5.68;;;;;;;9.03;68.77;100958.94;5070034;28;20453;-76
2022/04/25 01:53:27;;;;;;;14.75;6.47;;;;;;;9.02;68.46;100958.06;5071015;28;20024;-77
2022/04/25 01:55:52;;;;;;;23.80;6.15;;;;;;;9.07;68.22;100951.38;5070773;28;20483;-76
2022/04/25 01:58:17;;;;;;;12.38;5.70;;;;;;;9.06;68.87;100955.06;5069782;28;20035;-75
2022/04/25 02:00:44;;;;;;;12.20;6.57;;;;;;;9.14;68.77;100960.44;5071126;28;20024;-76
2022/04/25 02:03:10;;;;;;;14.35;6.60;;;;;;;9.23;68.39;100951.34;5070816;28;20033;-75
2022/04/25 02:05:35;;;;;;;12.80;5.90;;;;;;;9.28;68.20;100956.22;5070863;28;20031;-75
2022/04/25 02:08:02;;;;;;;15.80;6.78;;;;;;;9.36;68.28;100954.34;5070902;28;20024;-75
2022/04/25 02:10:27;;;;;;;13.68;7.03;;;;;;;9.40;68.33;100954.81;5071586;28;20468;-75
2022/04/25 02:12:53;;;;;;;15.55;6.75;;;;;;;9.50;68.09;100954.66;5070701;28;20031;-75
2022/04/25 02:15:18;;;;;;;14.68;6.65;;;;;;;9.54;67.80;100953.31;5070871;28;20080;-76
2022/04/25 02:17:44;;;;;;;14.38;6.40;;;;;;;9.64;67.55;100951.25;5070686;28;20048;-77
2022/04/25 02:20:11;;;;;;;17.75;6.90;;;;;;;9.69;67.34;100956.97;5070638;28;20418;-76
2022/04/25 02:22:36;;;;;;;17.73;7.05;;;;;;;9.70;67.24;100955.09;5071368;28;20104;-76
2022/04/25 02:25:02;;;;;;;13.63;6.53;;;;;;;9.71;67.20;100949.53;5071347;28;20095;-76
2022/04/25 02:27:27;;;;;;;16.75;6.53;;;;;;;9.78;66.91;100953.22;5078625;28;20031;-78
2022/04/25 02:29:58;;;;;;;16.23;6.97;;;;;;;9.78;66.90;100945.16;5087598;28;20045;-78
2022/04/25 02:32:28;;;;;;;15.52;7.47;;;;;;;9.78;66.85;100950.53;5089409;28;20008;-78
2022/04/25 02:34:57;;;;;;;16.40;7.45;;;;;;;9.80;67.00;100951.19;5154455;22;20083;-79
2022/04/25 02:37:23;;;;;;;18.02;8.27;;;;;;;9.76;67.03;100949.84;5091382;28;20096;-79
2022/04/25 02:39:49;;;;;;;17.10;7.22;;;;;;;9.76;67.48;100949.84;5082695;28;20113;-80
2022/04/25 02:42:14;;;;;;;17.80;7.40;;;;;;;9.78;67.34;100947.84;5080684;28;20029;-79
2022/04/25 02:44:40;;;;;;;15.98;7.43;;;;;;;9.78;67.70;100947.00;5080009;28;20379;-78
2022/04/25 02:47:05;;;;;;;15.68;7.22;;;;;;;9.70;67.54;100945.19;5082369;28;20016;-79
2022/04/25 02:49:31;;;;;;;18.20;6.88;;;;;;;9.64;68.29;100945.88;5099479;28;20064;-80
2022/04/25 02:51:56;;;;;;;12.40;7.00;;;;;;;9.58;68.65;100936.66;5097359;28;20043;-80
2022/04/25 02:54:21;;;;;;;16.17;8.15;;;;;;;9.51;68.99;100941.06;5097659;28;20076;-82
2022/04/25 02:56:48;;;;;;;20.33;7.97;;;;;;;9.46;69.19;100943.41;5113787;28;20028;-80
2022/04/25 02:59:14;;;;;;;13.70;6.70;;;;;;;9.33;69.42;100941.25;5094992;28;20077;-80
2022/04/25 03:01:39;;;;;;;15.75;7.13;;;;;;;9.32;69.69;100936.06;5096179;28;20072;-81
2022/04/25 03:04:05;;;;;;;19.35;7.88;;;;;;;9.28;70.03;100940.94;5096041;28;20021;-80
2022/04/25 03:06:31;;;;;;;13.95;7.05;;;;;;;9.21;70.54;100942.63;5098978;28;20045;-80
2022/04/25 03:08:56;;;;;;;17.63;9.10;;;;;;;9.25;70.85;100946.66;5109726;28;20029;-82
2022/04/25 03:11:21;;;;;;;15.20;7.55;;;;;;;9.25;70.66;100941.28;5096787;28;20052;-81
2022/04/25 03:13:47;;;;;;;20.55;7.55;;;;;;;9.28;70.46;100938.25;5095110;28;20040;-77
2022/04/25 03:16:12;;;;;;;14.52;7.00;;;;;;;9.24;70.82;100939.59;5104852;28;20028;-79
2022/04/25 03:18:37;;;;;;;16.23;6.72;;;;;;;9.22;71.02;100926.34;5096810;28;20024;-79
2022/04/25 03:21:03;;;;;;;19.08;7.40;;;;;;;9.23;70.90;100932.56;5098156;28;20750;-80
2022/04/25 03:23:29;;;;;;;14.52;6.47;;;;;;;9.28;70.62;100929.38;5090584;28;20058;-78
2022/04/25 03:25:54;;;;;;;19.30;6.97;;;;;;;9.27;70.89;100931.22;5088573;28;20078;-79
2022/04/25 03:28:20;;;;;;;14.00;6.78;;;;;;;9.27;70.51;100939.28;5089445;28;20076;-77
2022/04/25 03:30:46;;;;;;;20.83;7.15;;;;;;;9.24;70.92;100934.22;5082888;28;20210;-79
2022/04/25 03:33:11;;;;;;;16.88;6.88;;;;;;;9.23;70.92;100935.22;5095532;28;20036;-82
2022/04/25 03:35:40;;;;;;;14.05;6.60;;;;;;;9.23;71.06;100933.38;5074517;28;20036;-82
2022/04/25 03:38:06;;;;;;;18.33;6.80;;;;;;;9.22;71.27;100930.88;5092819;28;20472;-80
2022/04/25 03:40:33;;;;;;;24.60;7.47;;;;;;;9.19;71.57;100933.91;5091082;28;20110;-81
2022/04/25 03:42:59;;;;;;;21.90;7.07;;;;;;;9.24;71.34;100934.22;5080833;28;20094;-81
2022/04/25 03:45:24;;;;;;;14.93;6.93;;;;;;;9.24;71.75;100934.22;5089519;28;20041;-80
2022/04/25 03:47:49;;;;;;;16.85;6.80;;;;;;;9.28;71.31;100940.94;5094852;28;20016;-80
2022/04/25 03:50:16;;;;;;;13.52;6.63;;;;;;;9.30;71.70;100936.25;5094995;28;20036;-79
2022/04/25 03:52:44;;;;;;;16.33;6.95;;;;;;;9.30;71.65;100938.09;5091122;28;20152;-79
2022/04/25 03:57:55;;;;;;;15.98;7.05;;;;;;;9.24;72.14;100944.97;5092389;28;20039;-81
2022/04/25 04:00:21;;;;;;;19.52;7.45;;;;;;;9.25;72.02;100945.81;5091488;28;20017;-80
2022/04/25 04:02:47;;;;;;;18.92;6.68;;;;;;;9.23;72.29;100948.66;5093144;28;20032;-80
2022/04/25 04:05:13;;;;;;;21.20;7.93;;;;;;;9.14;72.47;100950.53;5113283;28;20035;-81
2022/04/25 04:07:39;;;;;;;15.30;7.18;;;;;;;9.11;72.82;100939.28;5096656;28;20090;-82
2022/04/25 04:10:05;;;;;;;17.65;6.82;;;;;;;9.11;73.27;100945.50;5110624;28;20092;-82
2022/04/25 04:12:31;;;;;;;19.52;7.47;;;;;;;9.07;73.32;100944.16;5092706;28;20046;-81
2022/04/25 04:14:56;;;;;;;20.67;7.38;;;;;;;9.07;73.85;100944.16;5095049;28;20033;-81
2022/04/25 04:17:22;;;;;;;17.23;7.10;;;;;;;9.12;74.32;100949.03;5095921;28;20047;-81
2022/04/25 04:19:47;;;;;;;26.35;7.97;;;;;;;9.12;74.03;100946.34;5093919;28;20055;-80
2022/04/25 04:22:12;;;;;;;21.30;7.43;;;;;;;9.08;74.52;100953.03;5091181;28;20033;-81
2022/04/25 04:24:38;;;;;;;21.45;7.97;;;;;;;9.14;74.50;100950.53;5096650;28;20040;-82
2022/04/25 04:27:04;;;;;;;24.00;8.07;;;;;;;9.14;74.82;100955.06;5095499;28;20028;-82
2022/04/25 04:29:31;;;;;;;18.27;7.72;;;;;;;9.17;75.30;100952.88;5093652;28;20028;-81
2022/04/25 04:32:01;;;;;;;18.15;8.57;;;;;;;9.13;75.18;100953.38;5094609;28;20121;-81
2022/04/25 04:34:27;;;;;;;25.80;8.95;;;;;;;9.11;75.37;100958.06;5095236;28;20053;-82
2022/04/25 04:36:53;;;;;;;31.00;8.77;;;;;;;9.10;76.08;100970.66;5095928;28;20074;-82
2022/04/25 04:39:18;;;;;;;21.50;8.73;;;;;;;9.11;76.22;100958.06;5095424;28;20106;-81
2022/04/25 04:41:44;;;;;;;21.75;8.40;;;;;;;9.09;76.14;100965.47;5095048;28;20052;-81
2022/04/25 04:44:10;;;;;;;25.58;8.77;;;;;;;9.09;76.35;100973.53;5091707;28;20037;-79
2022/04/25 04:46:35;;;;;;;21.30;8.68;;;;;;;9.07;76.49;100980.91;5060307;28;20046;-81
2022/04/25 04:49:01;;;;;;;19.30;9.20;;;;;;;9.00;77.08;100976.22;5076446;28;20038;-82
2022/04/25 04:51:26;;;;;;;25.65;9.63;;;;;;;9.01;77.21;100977.06;5075844;28;20368;-82
2022/04/25 04:53:51;;;;;;;18.20;8.65;;;;;;;9.02;77.09;100978.72;5074211;28;20048;-82
2022/04/25 04:56:17;;;;;;;22.83;9.80;;;;;;;9.05;77.52;100986.44;5087805;28;20028;-81
2022/04/25 04:58:42;;;;;;;27.23;9.70;;;;;;;9.09;77.34;100978.91;5080343;28;20107;-85
2022/04/25 05:01:08;;;;;;;18.33;8.18;;;;;;;9.14;77.03;100987.28;5089057;28;20539;-83
2022/04/25 05:03:37;;;;;;;19.17;9.13;;;;;;;9.16;76.89;100996.00;5093002;28;20032;-84
2022/04/25 05:06:05;;;;;;;20.35;8.73;;;;;;;9.21;77.31;100996.31;5095270;28;20058;-83
2022/04/25 05:08:30;;;;;;;24.77;9.98;;;;;;;9.25;76.93;100994.16;5094967;28;20032;-87
2022/04/25 05:10:56;;;;;;;27.40;10.32;;;;;;;9.37;76.54;100993.66;5098121;28;20109;-84
2022/04/25 05:13:21;;;;;;;23.90;9.98;;;;;;;9.52;75.98;101001.00;5096281;28;20058;-87
2022/04/25 05:15:47;;;;;;;20.85;9.23;;;;;;;9.63;75.99;100995.25;5099767;28;20711;-89
2022/04/25 05:18:12;;;;;;;15.95;8.45;;;;;;;9.69;74.87;100999.97;5103451;28;20032;-87
2022/04/25 05:20:38;;;;;;;16.60;8.63;;;;;;;9.72;74.78;101002.28;5098353;28;20055;-89
2022/04/25 05:23:04;;;;;;;22.17;9.90;;;;;;;9.75;74.60;100995.75;5097660;28;20032;-90
2022/04/25 05:25:29;;;;;;;21.70;9.15;;;;;;;9.71;74.35;101002.44;5100271;28;20034;-88
2022/04/25 05:27:55;;;;;;;28.05;10.63;;;;;;;9.67;74.54;101012.72;5098101;28;20456;-87
2022/04/25 05:30:23;;;;;;;21.33;8.77;;;;;;;9.62;74.69;101009.72;5081604;28;20066;-87
2022/04/25 05:32:57;;;;;;;20.50;9.65;;;;;;;9.57;74.48;101014.75;5099612;28;20478;-83
2022/04/25 05:35:25;;;;;;;16.92;8.85;;;;;;;9.53;74.56;101013.41;5073970;28;20048;-82
2022/04/25 05:37:50;;;;;;;18.88;9.13;;;;;;;9.49;74.96;101022.84;5075485;28;20098;-83
2022/04/25 05:40:17;;;;;;;20.42;9.93;;;;;;;9.42;75.16;101020.81;5072661;28;20028;-81
2022/04/25 05:42:43;;;;;;;27.10;10.48;;;;;;;9.32;75.51;101022.00;5087928;28;20031;-82
2022/04/25 05:45:10;;;;;;;22.08;9.88;;;;;;;9.25;75.54;101027.22;5089568;28;20044;-84
2022/04/25 05:47:36;;;;;;;25.52;10.13;;;;;;;9.31;76.22;101021.16;5107392;28;20025;-85
2022/04/25 05:52:47;;;;;;;20.60;9.23;;;;;;;10.05;73.96;101027.19;5084431;28;20044;-82
2022/04/25 05:55:12;;;;;;;18.02;9.32;;;;;;;10.18;72.54;101023.13;5081880;28;20037;-82
2022/04/25 05:57:40;;;;;;;18.30;9.73;;;;;;;10.08;72.43;101034.09;5082851;28;20031;-80
2022/04/25 06:00:07;;;;;;;17.77;9.60;;;;;;;9.97;72.47;101039.84;5079603;28;20033;-83
2022/04/25 06:02:32;;;;;;;16.15;8.95;;;;;;;9.85;73.21;101032.16;5079286;28;20286;-82
2022/04/25 06:04:58;;;;;;;16.95;9.02;;;;;;;9.70;73.27;101041.94;5077562;28;20068;-84
2022/04/25 06:07:23;;;;;;;18.75;9.20;;;;;;;9.62;74.40;101044.63;5079881;28;20025;-85
2022/04/25 06:09:48;;;;;;;14.27;8.60;;;;;;;9.55;74.87;101051.69;5080766;28;20024;-84
2022/04/25 06:12:14;;;;;;;20.30;10.02;;;;;;;9.51;75.22;101042.31;5079217;28;20422;-84
2022/04/25 06:14:40;;;;;;;18.83;9.40;;;;;;;9.54;74.92;101053.56;5087826;28;20055;-84
2022/04/25 06:17:06;;;;;;;20.20;9.68;;;;;;;9.55;75.67;101054.38;5083708;28;20100;-84
2022/04/25 06:19:32;;;;;;;20.50;9.63;;;;;;;9.61;75.42;101048.31;5084849;28;20039;-84
2022/04/25 06:21:57;;;;;;;25.65;10.05;;;;;;;9.64;74.96;101053.38;5084276;28;20039;-85
2022/04/25 06:24:23;;;;;;;22.52;10.32;;;;;;;9.71;75.06;101058.88;5079260;28;20044;-83
2022/04/25 06:26:49;;;;;;;20.00;9.02;;;;;;;9.73;75.07;101056.88;5080976;28;20028;-85
2022/04/25 06:29:15;;;;;;;22.70;9.93;;;;;;;9.73;75.17;101056.88;5083350;28;20796;-84
2022/04/25 06:31:41;;;;;;;18.70;10.23;;;;;;;9.79;75.40;101046.25;5088845;28;20100;-82
2022/04/25 06:34:06;;;;;;;21.35;10.10;;;;;;;9.78;75.28;101052.66;5086886;28;20048;-82
2022/04/25 06:36:32;;;;;;;23.63;10.43;;;;;;;9.76;75.38;101060.06;5086595;28;20043;-83
2022/04/25 06:38:57;;;;;;;24.85;9.88;;;;;;;9.74;75.94;101054.03;5083059;28;20028;-84
2022/04/25 06:41:23;;;;;;;22.17;10.23;;;;;;;9.73;75.91;101057.72;5083291;28;20033;-83
2022/04/25 06:43:48;;;;;;;20.10;9.85;;;;;;;9.72;76.44;101061.41;5089761;28;20108;-86
2022/04/25 06:46:13;;;;;;;15.25;9.68;;;;;;;9.78;76.94;101066.09;5091609;28;20077;-84
2022/04/25 06:48:39;;;;;;;19.23;10.48;;;;;;;9.74;77.34;101064.78;5088714;28;20036;-83
2022/04/25 06:51:04;;;;;;;20.08;9.90;;;;;;;9.69;78.66;101067.16;5088689;28;20028;-84
2022/04/25 06:53:30;;;;;;;19.60;10.40;;;;;;;9.71;79.67;101070.47;5078334;28;20029;-83
2022/04/25 06:55:56;;;;;;;18.67;10.80;;;;;;;9.73;80.78;101073.00;5080998;28;20039;-84
2022/04/25 06:58:21;;;;;;;21.35;11.38;;;;;;;9.71;80.97;101077.72;5080875;28;20133;-83
2022/04/25 07:00:48;;;;;;;21.70;11.77;;;;;;;9.63;81.53;101083.94;5081114;28;20040;-85
2022/04/25 07:03:13;;;;;;;25.05;12.32;;;;;;;9.58;82.51;101080.91;5086208;28;20044;-83
2022/04/25 07:05:39;;;;;;;21.55;12.52;;;;;;;9.57;82.93;101082.75;5084933;28;20028;-84
2022/04/25 07:08:04;;;;;;;21.30;12.40;;;;;;;9.49;83.20;101087.31;5085565;28;20037;-83
2022/04/25 07:10:30;;;;;;;20.90;12.93;;;;;;;9.48;84.31;101082.94;5082929;28;20028;-84
2022/04/25 07:12:56;;;;;;;26.30;13.50;;;;;;;9.43;84.56;101091.53;5086458;28;20074;-82
2022/04/25 07:15:22;;;;;;;20.02;12.45;;;;;;;9.36;85.66;101088.66;5085481;28;20017;-84
2022/04/25 07:17:50;;;;;;;21.02;12.75;;;;;;;9.26;86.21;101093.34;5090556;28;20052;-81
2022/04/25 07:20:16;;;;;;;;;;;;;;;9.12;86.39;101091.34;5081780;28;20039;-79
2022/04/25 07:30:53;;;;;;;25.30;15.13;;;;;;;8.88;90.22;101101.03;5076915;28;20174;-80
2022/04/25 07:33:18;;;;;;;35.72;16.35;;;;;;;8.84;90.38;101110.41;5073442;28;20112;-81
2022/04/25 07:35:43;;;;;;;33.05;16.15;;;;;;;8.85;91.25;101106.72;5076047;28;20475;-80
2022/04/25 07:38:10;;;;;;;25.02;14.73;;;;;;;8.88;91.81;101105.56;5075416;28;20457;-80
2022/04/25 07:40:36;;;;;;;28.00;15.38;;;;;;;8.87;91.76;101109.22;5073353;28;20113;-81
2022/04/25 07:43:02;;;;;;;31.73;16.63;;;;;;;8.88;92.16;101111.75;5075018;28;20430;-80
2022/04/25 07:45:27;;;;;;;31.98;15.63;;;;;;;8.88;92.38;101117.13;5074233;28;20059;-80
2022/04/25 07:47:52;;;;;;;36.45;15.20;;;;;;;8.84;92.16;101114.94;5075770;28;20020;-78
2022/04/25 07:50:23;;;;;;;31.05;15.68;;;;;;;8.85;91.89;101120.16;5078774;28;20508;-80
2022/04/25 07:52:49;;;;;;;34.10;16.35;;;;;;;8.81;91.96;101121.47;5077477;28;20111;-79
2022/04/25 07:55:14;;;;;;;28.17;15.20;;;;;;;8.81;91.69;101131.38;5076687;28;20029;-79
2022/04/25 07:57:40;;;;;;;26.58;14.52;;;;;;;8.73;91.12;101124.13;5079187;28;20119;-82
2022/04/25 08:00:07;;;;;;;23.55;14.77;;;;;;;8.71;91.05;101121.59;5080465;28;20030;-79
2022/04/25 08:02:32;;;;;;;27.63;16.02;;;;;;;8.69;91.24;101128.13;5076317;28;20391;-80
2022/04/25 08:04:58;;;;;;;28.58;15.70;;;;;;;8.79;91.90;101128.81;5075205;28;20020;-79
2022/04/25 08:07:23;;;;;;;30.70;15.40;;;;;;;8.79;91.87;101134.19;5074771;28;20174;-80
2022/04/25 08:09:49;;;;;;;27.63;15.65;;;;;;;8.82;92.39;101122.28;5075182;28;20024;-81
2022/04/25 08:18:01;;;;;;;31.23;16.75;;;;;;;8.94;93.24;101137.94;5075234;28;20047;-81
2022/04/25 08:20:28;;;;;;;30.13;17.75;;;;;;;9.00;93.08;101137.31;5075199;28;20064;-82
2022/04/25 08:22:54;;;;;;;33.03;18.63;;;;;;;9.14;93.21;101134.97;5074900;28;20111;-82
2022/04/25 08:25:19;;;;;;;31.38;18.63;;;;;;;9.15;93.47;101142.00;5075099;28;20482;-82
2022/04/25 08:27:44;;;;;;;34.72;17.83;;;;;;;9.28;93.61;101147.75;5074907;28;20024;-82
2022/04/25 08:30:12;;;;;;;37.88;19.42;;;;;;;9.33;93.54;101141.88;5075170;28;20028;-83
2022/04/25 08:32:38;;;;;;;34.10;17.80;;;;;;;9.33;93.16;101142.72;5076235;28;20032;-79
2022/04/25 08:35:03;;;;;;;32.40;17.40;;;;;;;9.37;92.64;101143.22;5075888;28;20044;-83
2022/04/25 08:37:29;;;;;;;35.90;18.60;;;;;;;9.39;92.63;101141.19;5075298;28;20021;-80
2022/04/25 08:39:54;;;;;;;31.98;18.13;;;;;;;9.44;91.85;101149.59;5074148;28;20036;-82
2022/04/25 08:42:20;;;;;;;32.70;17.58;;;;;;;9.43;91.60;101154.13;5073404;28;20070;-80
2022/04/25 08:44:50;;;;;;;31.67;18.20;;;;;;;9.45;91.92;101148.56;5073603;28;20025;-79
2022/04/25 08:47:16;;;;;;;37.17;17.70;;;;;;;9.49;91.70;101158.00;5073099;28;20130;-81
2022/04/25 08:49:41;;;;;;;31.52;17.75;;;;;;;9.49;91.83;101157.16;5071749;28;20495;-80
2022/04/25 08:52:07;;;;;;;34.58;17.83;;;;;;;9.42;91.15;101156.97;5055068;28;20644;-81
2022/04/25 08:54:33;;;;;;;34.85;18.35;;;;;;;9.44;91.20;101161.19;5088354;28;20029;-81
2022/04/25 08:56:59;;;;;;;31.52;17.80;;;;;;;9.50;91.51;101159.66;5071467;28;20057;-81
2022/04/25 08:59:25;;;;;;;30.15;17.20;;;;;;;9.52;91.59;101162.19;5071509;28;20140;-80
2022/04/25 09:01:51;;;;;;;32.15;17.30;;;;;;;9.49;90.84;101163.38;5072788;28;20134;-78
2022/04/25 09:04:16;;;;;;;34.15;16.27;;;;;;;9.45;89.93;101170.94;5072741;28;20040;-79
2022/04/25 09:06:42;;;;;;;29.08;16.23;;;;;;;9.47;89.56;101165.38;5072373;28;20073;-80
2022/04/25 09:09:07;;;;;;;30.55;16.30;;;;;;;9.49;89.30;101162.53;5072740;28;20029;-79
2022/04/25 09:14:18;;;;;;;30.00;17.25;;;;;;;9.78;90.51;101175.47;5072991;28;20051;-82
2022/04/25 09:16:44;;;;;;;34.67;16.50;;;;;;;9.88;89.86;101168.91;5072774;28;20024;-79
2022/04/25 09:19:10;;;;;;;32.92;17.95;;;;;;;10.04;89.78;101177.97;5071432;28;20078;-81
2022/04/25 09:21:41;;;;;;;30.55;16.45;;;;;;;10.15;88.93;101174.94;5071831;28;20341;-82
2022/04/25 09:24:26;;;;;;;30.33;17.05;;;;;;;10.21;87.77;101179.59;5073588;28;20029;-81
2022/04/25 09:27:07;;;;;;;30.33;15.25;;;;;;;10.26;88.36;101174.56;5074500;28;20328;-80
2022/04/25 09:29:34;;;;;;;30.02;15.77;;;;;;;10.27;88.01;101178.97;5073345;28;20032;-79
2022/04/25 09:31:59;;;;;;;38.22;16.85;;;;;;;10.25;87.33;101186.34;5072848;28;20029;-81
2022/04/25 09:37:09;;;;;;;25.88;15.20;;;;;;;10.19;85.14;101192.41;5073753;28;20099;-80
2022/04/25 09:39:36;;;;;;;30.42;14.70;;;;;;;10.15;85.80;101191.06;5075447;28;20028;-83
2022/04/25 09:42:02;;;;;;;30.10;15.85;;;;;;;10.12;86.61;101191.41;5077926;28;20078;-80
2022/04/25 09:44:58;;;;;;;30.90;15.82;;;;;;;10.15;87.35;101190.22;5078688;28;20048;-81
2022/04/25 09:47:31;;;;;;;30.48;16.25;;;;;;;10.24;88.16;101176.59;5072328;28;20459;-80
2022/04/25 09:50:02;;;;;;;30.85;16.80;;;;;;;10.31;88.57;101185.69;5074695;28;20425;-80
2022/04/25 09:52:28;;;;;;;30.30;17.10;;;;;;;10.39;88.78;101186.69;5077230;28;20036;-80
2022/04/25 09:54:53;;;;;;;30.35;16.88;;;;;;;10.51;88.68;101201.44;5074149;28;20380;-80
2022/04/25 09:57:30;;;;;;;27.23;15.32;;;;;;;10.53;87.93;101210.16;5071398;28;20132;-79
2022/04/25 09:59:56;;;;;;;28.90;16.52;;;;;;;10.54;87.78;101214.56;5072411;28;20036;-81
2022/04/25 10:02:22;;;;;;;30.70;16.65;;;;;;;10.52;87.40;101213.88;5071896;28;20471;-79
2022/04/25 10:04:47;;;;;;;29.85;16.23;;;;;;;10.36;86.25;101214.75;5072052;28;20068;-80
2022/04/25 10:07:13;;;;;;;31.48;16.60;;;;;;;10.26;85.88;101217.59;5070736;28;20017;-79
2022/04/25 10:09:39;;;;;;;30.35;15.50;;;;;;;10.10;86.47;101215.78;5071238;28;20078;-79
2022/04/25 10:12:06;;;;;;;24.17;15.48;;;;;;;10.04;86.36;101208.38;5072252;28;20024;-81
2022/04/25 10:14:31;;;;;;;38.63;16.25;;;;;;;9.99;86.81;101218.81;5071858;28;20032;-81
2022/04/25 10:16:58;;;;;;;26.63;15.18;;;;;;;10.00;87.69;101222.34;5072048;28;20128;-79
2022/04/25 10:19:25;;;;;;;33.80;16.48;;;;;;;10.01;87.90;101216.81;5071640;28;20443;-80
2022/04/25 10:21:54;;;;;;;27.42;15.80;;;;;;;9.96;87.80;101221.84;5071659;28;20103;-79
2022/04/25 10:24:20;;;;;;;31.27;16.83;;;;;;;9.99;88.52;101217.97;5071579;28;20025;-82
2022/04/25 10:26:46;;;;;;;26.67;15.50;;;;;;;9.99;88.84;101218.81;5071832;28;20138;-80
2022/04/25 10:29:16;;;;;;;28.08;15.73;;;;;;;10.07;88.36;101209.91;5071443;28;20448;-81
2022/04/25 10:31:44;;;;;;;26.80;16.73;;;;;;;10.11;87.77;101216.63;5070196;28;20041;-78
2022/04/25 10:34:10;;;;;;;33.08;17.27;;;;;;;10.18;87.59;101222.16;5071733;28;20044;-80
2022/04/25 10:36:38;;;;;;;30.02;16.35;;;;;;;10.22;87.38;101218.13;5070484;28;20016;-83
2022/04/25 10:39:20;;;;;;;24.20;15.73;;;;;;;10.29;86.67;101225.38;5071980;28;20028;-80
2022/04/25 10:44:45;;;;;;;29.48;14.70;;;;;;;10.38;85.78;101236.13;5072635;28;20493;-82
2022/04/25 10:47:12;;;;;;;25.92;14.85;;;;;;;10.46;85.35;101236.13;5071157;28;20021;-82
2022/04/25 10:49:42;;;;;;;24.87;15.67;;;;;;;10.53;85.67;101237.06;5071999;28;20024;-82
2022/04/25 10:55:23;;;;;;;29.98;14.25;;;;;;;10.59;84.41;101236.41;5077365;28;20038;-80
2022/04/25 10:58:01;;;;;;;27.77;15.70;;;;;;;10.52;83.07;101243.47;5075828;28;20024;-82
2022/04/25 11:00:44;;;;;;;28.60;15.27;;;;;;;10.52;82.82;101248.88;5074588;28;20036;-83
2022/04/25 11:03:16;;;;;;;25.90;14.25;;;;;;;10.54;82.77;101254.94;5077130;28;20024;-80
2022/04/25 11:05:42;;;;;;;22.13;14.30;;;;;;;10.50;83.03;101253.56;5077477;28;20044;-83
2022/04/25 11:08:20;;;;;;;27.10;15.10;;;;;;;10.55;83.44;101259.28;5078608;28;20417;-83
2022/04/25 11:10:49;;;;;;;24.60;15.02;;;;;;;10.56;81.63;101263.69;5079085;28;20025;-80
2022/04/25 11:13:18;;;;;;;21.88;13.75;;;;;;;10.55;81.99;101261.97;5084427;28;20060;-81
2022/04/25 11:15:44;;;;;;;24.45;14.23;;;;;;;10.54;82.43;101257.63;5077276;28;20036;-84
2022/04/25 11:18:34;;;;;;;24.92;14.35;;;;;;;10.50;82.63;101265.19;5075962;28;20025;-86
2022/04/25 11:21:16;;;;;;;27.13;15.27;;;;;;;10.46;82.87;101269.22;5076060;28;20098;-84
2022/04/25 11:23:44;;;;;;;29.80;16.35;;;;;;;10.49;83.44;101265.38;5075859;28;20454;-82
2022/04/25 11:26:30;;;;;;;;;;;;;;;10.50;82.24;101280.50;5077365;28;20029;-81
2022/04/25 11:28:55;;;;;;;27.27;13.85;;;;;;;10.42;81.66;101283.19;5071153;28;19956;-81
2022/04/25 11:31:22;;;;;;;25.85;14.05;;;;;;;10.28;81.69;101279.34;5075617;28;20083;-82
2022/04/25 11:33:50;;;;;;;22.73;14.07;;;;;;;10.22;82.96;101283.53;5091221;28;20037;-81
2022/04/25 11:36:16;;;;;;;24.73;13.40;;;;;;;10.11;81.62;101273.94;5076769;28;20415;-79
2022/04/25 11:41:29;;;;;;;25.42;14.82;;;;;;;9.85;83.01;101278.66;5076543;28;20068;-83
2022/04/25 11:43:54;;;;;;;26.20;14.35;;;;;;;9.80;83.55;101281.00;5077072;28;20446;-83
2022/04/25 11:46:20;;;;;;;27.40;16.15;;;;;;;9.78;84.94;101281.16;5075026;28;20114;-79
2022/04/25 11:48:49;;;;;;;31.92;18.80;;;;;;;9.84;85.63;101280.47;5074421;28;20543;-81
2022/04/25 11:51:34;;;;;;;32.28;18.27;;;;;;;9.83;86.36;101281.50;5074708;28;20448;-78
2022/04/25 11:54:05;;;;;;;29.63;16.20;;;;;;;9.81;86.57;101278.13;5074406;28;20105;-77
2022/04/25 11:56:33;;;;;;;40.05;20.58;;;;;;;9.80;86.21;101284.50;5057436;28;20114;-79
2022/04/25 11:58:59;;;;;;;33.38;17.95;;;;;;;9.81;85.97;101290.72;5073312;28;20120;-78